createdAt,value
2023-05-24T00:00:53.363Z,65.09
2023-05-24T00:02:03.882Z,65.17
2023-05-24T00:03:07.168Z,65.21
2023-05-24T00:04:11.281Z,65.15
2023-05-24T00:05:14.975Z,65.28
2023-05-24T00:06:18.685Z,65.43
2023-05-24T00:07:21.544Z,65.35
2023-05-24T00:08:24.563Z,65.62
2023-05-24T00:09:27.270Z,65.62
2023-05-24T00:10:29.984Z,65.67
2023-05-24T00:11:32.825Z,65.80
2023-05-24T00:12:36.205Z,65.76
2023-05-24T00:13:39.757Z,65.93
2023-05-24T00:14:42.612Z,65.90
2023-05-24T00:15:45.320Z,66.06
2023-05-24T00:16:48.260Z,66.12
2023-05-24T00:17:51.858Z,66.27
2023-05-24T00:18:55.011Z,66.28
2023-05-24T00:19:58.321Z,66.36
2023-05-24T00:21:01.277Z,66.50
2023-05-24T00:22:04.458Z,66.72
2023-05-24T00:23:08.219Z,66.69
2023-05-24T00:24:11.489Z,66.78
2023-05-24T00:25:14.346Z,67.05
2023-05-24T00:26:22.778Z,66.95
2023-05-24T00:27:29.188Z,67.07
2023-05-24T00:28:32.410Z,67.16
2023-05-24T00:29:35.377Z,67.77
2023-05-24T00:30:38.344Z,67.67
2023-05-24T00:31:41.198Z,67.80
2023-05-24T00:32:44.026Z,68.02
2023-05-24T00:33:46.766Z,68.13
2023-05-24T00:34:49.664Z,68.10
2023-05-24T00:35:56.429Z,68.13
2023-05-24T00:36:59.144Z,68.36
2023-05-24T00:38:02.411Z,68.49
2023-05-24T00:39:05.192Z,68.35
2023-05-24T00:40:08.538Z,68.31
2023-05-24T00:41:11.721Z,68.49
2023-05-24T00:42:14.508Z,68.48
2023-05-24T00:43:17.369Z,68.71
2023-05-24T00:44:20.229Z,68.53
2023-05-24T00:45:24.616Z,68.53
2023-05-24T00:46:28.880Z,68.68
2023-05-24T00:47:31.835Z,68.69
2023-05-24T00:48:35.122Z,68.97
2023-05-24T00:49:38.171Z,68.91
2023-05-24T00:50:41.985Z,69.16
2023-05-24T00:51:44.924Z,69.43
2023-05-24T00:52:47.970Z,69.71
2023-05-24T00:53:50.863Z,69.87
2023-05-24T00:54:53.742Z,70.12
2023-05-24T00:55:56.641Z,69.89
2023-05-24T00:56:59.430Z,70.04
2023-05-24T00:58:02.682Z,70.21
2023-05-24T00:59:05.919Z,70.34
2023-05-24T01:00:09.578Z,70.28
2023-05-24T01:01:12.778Z,70.68
2023-05-24T01:02:21.227Z,70.81
2023-05-24T01:03:24.508Z,70.83
2023-05-24T01:04:28.138Z,70.71
2023-05-24T01:05:30.941Z,70.87
2023-05-24T01:06:44.970Z,70.79
2023-05-24T01:07:47.813Z,70.75
2023-05-24T01:08:50.562Z,71.26
2023-05-24T01:10:03.409Z,71.26
2023-05-24T01:11:11.728Z,71.09
2023-05-24T01:12:20.685Z,70.94
2023-05-24T01:13:33.699Z,71.04
2023-05-24T01:14:42.574Z,71.29
2023-05-24T01:16:27.591Z,71.19
2023-05-24T01:18:57.292Z,71.53
2023-05-24T01:20:08.966Z,71.65
2023-05-24T01:21:16.569Z,71.58
2023-05-24T01:22:36.032Z,71.52
2023-05-24T01:23:51.241Z,71.62
2023-05-24T01:25:02.162Z,71.52
2023-05-24T01:26:18.482Z,71.69
2023-05-24T01:27:22.883Z,71.71
2023-05-24T01:28:27.541Z,71.63
2023-05-24T01:29:31.295Z,71.57
2023-05-24T01:31:29.418Z,71.68
2023-05-24T01:32:32.899Z,71.67
2023-05-24T01:33:35.861Z,71.73
2023-05-24T01:34:38.611Z,72.00
2023-05-24T01:35:42.524Z,71.81
2023-05-24T01:36:45.678Z,71.72
2023-05-24T01:37:48.486Z,71.71
2023-05-24T01:38:51.655Z,71.67
2023-05-24T01:39:55.137Z,71.79
2023-05-24T01:41:01.570Z,71.78
2023-05-24T01:42:07.210Z,71.76
2023-05-24T01:43:12.832Z,71.79
2023-05-24T01:44:29.182Z,71.77
2023-05-24T01:45:43.911Z,71.80
2023-05-24T01:46:50.454Z,71.69
2023-05-24T01:48:03.187Z,72.28
2023-05-24T02:02:06.038Z,72.22
2023-05-24T02:03:09.004Z,72.16
2023-05-24T02:04:12.304Z,72.27
2023-05-24T02:05:15.040Z,72.42
2023-05-24T02:06:17.781Z,72.26
2023-05-24T02:07:20.931Z,72.21
2023-05-24T02:08:23.596Z,72.36
2023-05-24T02:09:27.684Z,72.40
2023-05-24T02:10:30.543Z,72.20
2023-05-24T02:11:33.291Z,72.36
2023-05-24T02:12:36.384Z,72.38
2023-05-24T02:13:39.100Z,72.17
2023-05-24T02:14:42.797Z,72.17
2023-05-24T02:15:46.560Z,72.19
2023-05-24T02:16:50.789Z,72.36
2023-05-24T02:17:55.123Z,72.48
2023-05-24T02:18:58.027Z,72.45
2023-05-24T02:20:01.092Z,72.36
2023-05-24T02:21:04.276Z,72.24
2023-05-24T02:22:07.393Z,72.14
2023-05-24T02:23:10.396Z,72.04
2023-05-24T02:24:13.215Z,71.94
2023-05-24T02:25:16.409Z,71.99
2023-05-24T02:26:19.521Z,72.00
2023-05-24T02:27:22.221Z,72.08
2023-05-24T02:28:25.275Z,71.95
2023-05-24T02:29:28.267Z,72.04
2023-05-24T02:30:31.041Z,71.93
2023-05-24T02:31:33.922Z,71.95
2023-05-24T02:32:37.234Z,71.96
2023-05-24T02:33:40.673Z,71.99
2023-05-24T02:34:44.192Z,72.06
2023-05-24T02:35:46.928Z,72.02
2023-05-24T02:36:49.991Z,72.04
2023-05-24T02:37:53.393Z,71.93
2023-05-24T02:38:56.997Z,72.06
2023-05-24T02:39:59.749Z,72.07
2023-05-24T02:41:02.778Z,71.94
2023-05-24T02:42:05.902Z,72.01
2023-05-24T02:43:09.793Z,72.04
2023-05-24T02:44:12.857Z,72.09
2023-05-24T02:45:15.838Z,72.01
2023-05-24T02:46:18.827Z,72.09
2023-05-24T02:47:21.541Z,72.15
2023-05-24T02:48:24.295Z,72.18
2023-05-24T02:49:27.448Z,72.13
2023-05-24T02:50:30.308Z,72.04
2023-05-24T02:51:33.479Z,71.71
2023-05-24T02:52:36.338Z,71.74
2023-05-24T02:53:39.658Z,71.94
2023-05-24T02:54:42.617Z,72.05
2023-05-24T02:55:46.712Z,72.06
2023-05-24T02:56:49.886Z,72.09
2023-05-24T02:57:54.021Z,72.19
2023-05-24T02:58:56.776Z,72.14
2023-05-24T03:00:00.114Z,72.26
2023-05-24T03:01:02.896Z,72.32
2023-05-24T03:02:05.825Z,72.34
2023-05-24T03:03:08.800Z,72.45
2023-05-24T03:04:11.770Z,72.49
2023-05-24T03:05:14.723Z,72.43
2023-05-24T03:06:17.541Z,72.35
2023-05-24T03:07:22.047Z,72.44
2023-05-24T03:08:24.804Z,72.49
2023-05-24T03:09:27.810Z,72.49
2023-05-24T03:10:31.149Z,72.58
2023-05-24T03:11:33.921Z,72.71
2023-05-24T03:12:36.776Z,72.79
2023-05-24T03:13:40.208Z,72.66
2023-05-24T03:14:43.009Z,72.82
2023-05-24T03:15:46.712Z,72.87
2023-05-24T03:16:49.869Z,72.81
2023-05-24T03:17:52.691Z,72.80
2023-05-24T03:18:56.514Z,72.94
2023-05-24T03:19:59.363Z,72.94
2023-05-24T03:21:02.650Z,72.95
2023-05-24T03:22:05.656Z,72.91
2023-05-24T03:23:09.743Z,72.94
2023-05-24T03:24:13.294Z,73.08
2023-05-24T03:25:16.550Z,73.06
2023-05-24T03:26:20.489Z,72.98
2023-05-24T03:27:23.293Z,72.71
2023-05-24T03:28:27.535Z,72.70
2023-05-24T03:29:30.589Z,72.68
2023-05-24T03:30:33.537Z,72.65
2023-05-24T03:31:36.578Z,72.46
2023-05-24T03:32:39.497Z,72.41
2023-05-24T03:33:42.438Z,72.28
2023-05-24T03:34:45.319Z,72.35
2023-05-24T03:35:48.039Z,72.36
2023-05-24T03:36:51.163Z,72.41
2023-05-24T03:37:54.232Z,72.33
2023-05-24T03:38:58.512Z,72.29
2023-05-24T03:40:04.594Z,72.16
2023-05-24T03:41:16.486Z,72.16
2023-05-24T03:42:19.876Z,72.23
2023-05-24T03:43:22.586Z,72.30
2023-05-24T03:44:31.634Z,72.30
2023-05-24T03:45:39.894Z,72.13
2023-05-24T03:46:43.289Z,72.12
2023-05-24T03:47:46.682Z,71.92
2023-05-24T03:48:49.790Z,71.92
2023-05-24T03:49:52.620Z,71.79
2023-05-24T03:50:55.507Z,71.71
2023-05-24T03:51:58.344Z,71.80
2023-05-24T03:53:01.271Z,71.79
2023-05-24T03:54:04.044Z,71.63
2023-05-24T03:55:06.958Z,71.35
2023-05-24T03:56:09.663Z,71.66
2023-05-24T03:57:12.565Z,71.35
2023-05-24T03:58:15.445Z,71.25
2023-05-24T03:59:18.169Z,71.23
2023-05-24T04:00:21.232Z,71.22
2023-05-24T04:01:33.352Z,71.27
2023-05-24T04:02:38.276Z,71.15
2023-05-24T04:03:41.555Z,71.14
2023-05-24T04:04:44.949Z,71.16
2023-05-24T04:05:49.298Z,71.17
2023-05-24T04:06:53.871Z,71.13
2023-05-24T04:07:56.809Z,71.10
2023-05-24T04:09:00.214Z,71.02
2023-05-24T04:10:06.646Z,71.00
2023-05-24T04:11:09.389Z,70.91
2023-05-24T04:12:13.398Z,70.84
2023-05-24T04:13:17.672Z,70.82
2023-05-24T04:14:20.643Z,70.83
2023-05-24T04:15:24.032Z,70.90
2023-05-24T04:16:27.575Z,70.75
2023-05-24T04:17:34.935Z,70.86
2023-05-24T04:18:38.018Z,70.72
2023-05-24T04:19:41.052Z,70.80
2023-05-24T04:20:44.129Z,70.65
2023-05-24T04:21:47.119Z,70.59
2023-05-24T04:22:49.996Z,70.63
2023-05-24T04:23:52.753Z,70.79
2023-05-24T04:24:55.635Z,70.55
2023-05-24T04:25:58.492Z,70.68
2023-05-24T04:27:01.297Z,70.74
2023-05-24T04:28:04.113Z,70.55
2023-05-24T04:29:07.833Z,70.72
2023-05-24T04:30:12.021Z,70.66
2023-05-24T04:31:16.439Z,70.55
2023-05-24T04:32:19.924Z,70.65
2023-05-24T04:33:23.397Z,70.71
2023-05-24T04:34:26.188Z,70.49
2023-05-24T04:35:30.191Z,70.62
2023-05-24T04:36:33.968Z,70.53
2023-05-24T04:37:36.700Z,70.59
2023-05-24T04:38:40.847Z,70.60
2023-05-24T04:39:46.858Z,70.61
2023-05-24T04:40:49.857Z,70.60
2023-05-24T04:41:53.430Z,70.55
2023-05-24T04:42:56.222Z,70.57
2023-05-24T04:44:01.851Z,70.39
2023-05-24T04:45:04.715Z,70.41
2023-05-24T04:46:09.399Z,70.36
2023-05-24T04:47:12.956Z,70.42
2023-05-24T04:48:15.658Z,70.35
2023-05-24T04:49:18.347Z,70.32
2023-05-24T04:50:21.025Z,70.25
2023-05-24T04:51:23.965Z,70.31
2023-05-24T04:52:26.760Z,70.34
2023-05-24T04:53:29.581Z,70.34
2023-05-24T04:54:32.829Z,70.43
2023-05-24T04:55:35.933Z,70.22
2023-05-24T04:56:39.306Z,70.21
2023-05-24T04:57:42.068Z,70.19
2023-05-24T04:58:44.903Z,70.21
2023-05-24T04:59:47.616Z,70.34
2023-05-24T05:00:50.459Z,70.30
2023-05-24T05:01:53.315Z,70.16
2023-05-24T05:02:56.234Z,70.26
2023-05-24T05:03:59.553Z,70.33
2023-05-24T05:05:02.245Z,70.40
2023-05-24T05:06:05.007Z,70.46
2023-05-24T05:07:08.287Z,70.40
2023-05-24T05:08:10.984Z,70.49
2023-05-24T05:09:14.807Z,70.31
2023-05-24T05:10:17.672Z,70.30
2023-05-24T05:11:20.664Z,70.66
2023-05-24T05:12:23.547Z,70.91
2023-05-24T05:13:26.364Z,70.83
2023-05-24T05:14:29.308Z,71.02
2023-05-24T05:15:32.681Z,71.05
2023-05-24T05:16:36.598Z,71.34
2023-05-24T05:17:39.678Z,71.17
2023-05-24T05:18:42.416Z,71.77
2023-05-24T05:19:45.237Z,71.79
2023-05-24T05:20:48.080Z,71.73
2023-05-24T05:21:50.923Z,71.92
2023-05-24T05:22:53.836Z,72.01
2023-05-24T05:23:56.630Z,72.32
2023-05-24T05:25:00.116Z,72.68
2023-05-24T05:26:02.967Z,72.78
2023-05-24T05:27:06.218Z,72.33
2023-05-24T05:28:09.078Z,72.44
2023-05-24T05:29:11.765Z,72.80
2023-05-24T05:30:14.627Z,72.62
2023-05-24T05:31:17.321Z,72.91
2023-05-24T05:32:20.107Z,73.14
2023-05-24T05:33:23.027Z,73.12
2023-05-24T05:34:25.877Z,72.86
2023-05-24T05:35:28.677Z,72.97
2023-05-24T05:36:32.359Z,72.93
2023-05-24T05:37:35.107Z,73.00
2023-05-24T05:38:37.902Z,73.16
2023-05-24T05:39:41.024Z,73.63
2023-05-24T05:40:44.192Z,73.62
2023-05-24T05:41:47.232Z,73.41
2023-05-24T05:42:50.106Z,73.55
2023-05-24T05:43:52.807Z,73.43
2023-05-24T05:44:55.554Z,73.73
2023-05-24T05:45:58.330Z,73.83
2023-05-24T05:47:01.111Z,74.00
2023-05-24T05:48:03.979Z,74.48
2023-05-24T05:49:06.944Z,74.24
2023-05-24T05:50:09.845Z,74.40
2023-05-24T05:51:12.795Z,74.93
2023-05-24T05:52:15.678Z,74.51
2023-05-24T05:53:18.440Z,74.58
2023-05-24T05:54:21.392Z,74.53
2023-05-24T05:55:24.485Z,74.86
2023-05-24T05:56:27.806Z,74.50
2023-05-24T05:57:30.558Z,74.44
2023-05-24T05:58:33.561Z,74.44
2023-05-24T05:59:36.423Z,74.45
2023-05-24T06:00:40.467Z,74.30
2023-05-24T06:01:44.000Z,74.57
2023-05-24T06:02:46.792Z,74.44
2023-05-24T06:03:51.001Z,74.12
2023-05-24T06:04:54.130Z,74.16
2023-05-24T06:05:57.031Z,73.96
2023-05-24T06:06:59.888Z,73.85
2023-05-24T06:08:03.386Z,73.51
2023-05-24T06:09:07.868Z,73.54
2023-05-24T06:10:11.013Z,73.45
2023-05-24T06:11:14.078Z,73.39
2023-05-24T06:12:16.852Z,73.17
2023-05-24T06:13:19.536Z,73.13
2023-05-24T06:14:22.377Z,73.06
2023-05-24T06:15:25.408Z,72.88
2023-05-24T06:16:28.749Z,72.87
2023-05-24T06:17:31.582Z,72.91
2023-05-24T06:18:34.633Z,72.81
2023-05-24T06:19:37.380Z,72.86
2023-05-24T06:20:40.370Z,72.70
2023-05-24T06:21:47.804Z,72.70
2023-05-24T06:22:50.862Z,72.32
2023-05-24T06:23:53.610Z,72.16
2023-05-24T06:24:56.347Z,72.13
2023-05-24T06:25:59.151Z,72.12
2023-05-24T06:27:03.311Z,72.08
2023-05-24T06:28:07.955Z,72.01
2023-05-24T06:29:10.655Z,71.76
2023-05-24T06:30:13.919Z,71.94
2023-05-24T06:31:16.850Z,71.73
2023-05-24T06:32:19.556Z,71.54
2023-05-24T06:33:22.597Z,71.28
2023-05-24T06:34:25.716Z,71.07
2023-05-24T06:35:28.510Z,70.99
2023-05-24T06:36:34.266Z,70.93
2023-05-24T06:37:38.634Z,70.94
2023-05-24T06:38:41.618Z,70.95
2023-05-24T06:39:44.388Z,70.72
2023-05-24T06:40:47.243Z,70.43
2023-05-24T06:41:51.456Z,70.53
2023-05-24T06:42:58.769Z,70.03
2023-05-24T06:44:01.695Z,69.66
2023-05-24T06:45:04.564Z,69.45
2023-05-24T06:46:07.764Z,69.82
2023-05-24T06:47:10.668Z,69.79
2023-05-24T06:48:13.503Z,69.81
2023-05-24T06:49:16.340Z,69.57
2023-05-24T06:50:19.518Z,69.30
2023-05-24T06:51:22.590Z,69.15
2023-05-24T06:52:25.462Z,69.01
2023-05-24T06:53:28.145Z,68.65
2023-05-24T06:54:31.096Z,68.10
2023-05-24T06:55:33.787Z,67.33
2023-05-24T06:56:36.561Z,67.47
2023-05-24T06:57:39.431Z,67.44
2023-05-24T06:58:42.203Z,66.99
2023-05-24T06:59:45.056Z,66.77
2023-05-24T07:00:48.045Z,66.54
2023-05-24T07:01:53.961Z,66.10
2023-05-24T07:02:57.377Z,65.88
2023-05-24T07:04:00.210Z,66.04
2023-05-24T07:05:03.073Z,65.75
2023-05-24T07:06:06.101Z,65.41
2023-05-24T07:07:09.625Z,65.48
2023-05-24T07:08:12.349Z,65.32
2023-05-24T07:09:15.059Z,65.27
2023-05-24T07:10:17.820Z,64.78
2023-05-24T07:11:20.686Z,64.99
2023-05-24T07:12:23.752Z,64.81
2023-05-24T07:13:26.716Z,63.76
2023-05-24T07:14:29.407Z,63.82
2023-05-24T07:15:32.150Z,64.02
2023-05-24T07:16:34.929Z,62.85
2023-05-24T07:17:37.726Z,62.61
2023-05-24T07:18:41.894Z,62.47
2023-05-24T07:19:45.161Z,61.97
2023-05-24T07:20:48.192Z,61.82
2023-05-24T07:21:51.365Z,61.65
2023-05-24T07:22:54.095Z,60.97
2023-05-24T07:23:57.033Z,61.05
2023-05-24T07:24:59.846Z,60.86
2023-05-24T07:26:03.083Z,60.45
2023-05-24T07:27:05.844Z,59.70
2023-05-24T07:28:08.628Z,59.58
2023-05-24T07:29:11.409Z,59.83
2023-05-24T07:30:27.893Z,58.20
2023-05-24T07:31:35.407Z,58.68
2023-05-24T07:32:38.493Z,58.98
2023-05-24T07:33:41.348Z,58.67
2023-05-24T07:34:44.220Z,58.61
2023-05-24T07:35:51.379Z,58.82
2023-05-24T07:36:54.214Z,59.01
2023-05-24T07:37:57.008Z,58.22
2023-05-24T07:39:01.390Z,57.41
2023-05-24T07:40:05.698Z,57.76
2023-05-24T07:41:08.452Z,57.91
2023-05-24T07:42:11.137Z,57.35
2023-05-24T07:43:13.917Z,55.90
2023-05-24T07:44:16.657Z,55.53
2023-05-24T07:45:19.817Z,55.87
2023-05-24T07:46:22.596Z,55.92
2023-05-24T07:47:25.608Z,56.49
2023-05-24T07:48:28.442Z,56.61
2023-05-24T07:49:31.215Z,56.72
2023-05-24T07:50:34.126Z,55.98
2023-05-24T07:51:37.038Z,55.69
2023-05-24T07:52:39.837Z,55.54
2023-05-24T07:53:42.579Z,55.68
2023-05-24T07:54:45.512Z,56.14
2023-05-24T07:55:48.436Z,56.05
2023-05-24T07:56:51.786Z,55.86
2023-05-24T07:57:54.581Z,54.61
2023-05-24T07:59:03.492Z,54.49
2023-05-24T08:00:14.788Z,54.52
2023-05-24T08:01:20.782Z,54.46
2023-05-24T08:02:24.367Z,54.75
2023-05-24T08:03:27.472Z,55.03
2023-05-24T08:04:31.071Z,55.39
2023-05-24T08:05:33.945Z,55.52
2023-05-24T08:06:37.020Z,56.04
2023-05-24T08:07:40.664Z,55.72
2023-05-24T08:08:43.472Z,55.94
2023-05-24T08:09:46.360Z,55.49
2023-05-24T08:10:49.198Z,55.30
2023-05-24T08:11:51.992Z,55.56
2023-05-24T08:12:56.201Z,55.36
2023-05-24T08:14:00.253Z,55.00
2023-05-24T08:15:05.137Z,55.24
2023-05-24T08:16:08.119Z,55.49
2023-05-24T08:17:11.000Z,55.31
2023-05-24T08:18:13.873Z,55.30
2023-05-24T08:19:16.837Z,55.42
2023-05-24T08:20:19.656Z,55.66
2023-05-24T08:21:22.601Z,55.80
2023-05-24T08:22:25.966Z,55.25
2023-05-24T08:23:30.006Z,55.67
2023-05-24T08:24:32.834Z,55.39
2023-05-24T08:25:36.210Z,55.31
2023-05-24T08:26:39.001Z,55.69
2023-05-24T08:27:41.949Z,55.82
2023-05-24T08:28:44.666Z,55.87
2023-05-24T08:29:47.377Z,55.67
2023-05-24T08:30:50.188Z,55.80
2023-05-24T08:31:53.068Z,55.95
2023-05-24T08:32:56.172Z,55.92
2023-05-24T08:33:59.532Z,55.22
2023-05-24T08:35:18.565Z,54.82
2023-05-24T08:36:22.833Z,55.28
2023-05-24T08:37:25.744Z,55.45
2023-05-24T08:38:29.478Z,55.61
2023-05-24T08:39:32.363Z,55.44
2023-05-24T08:40:35.204Z,54.59
2023-05-24T08:41:38.878Z,54.95
2023-05-24T08:42:41.710Z,55.01
2023-05-24T08:43:46.167Z,55.30
2023-05-24T08:44:53.399Z,55.46
2023-05-24T08:45:58.149Z,55.33
2023-05-24T08:47:01.266Z,55.02
2023-05-24T08:48:05.616Z,55.60
2023-05-24T08:49:12.558Z,55.64
2023-05-24T08:50:15.505Z,56.03
2023-05-24T08:51:18.323Z,56.18
2023-05-24T08:52:21.463Z,56.11
2023-05-24T08:53:24.717Z,55.68
2023-05-24T08:54:27.487Z,55.16
2023-05-24T08:55:33.622Z,55.21
2023-05-24T08:56:37.066Z,55.46
2023-05-24T08:57:41.265Z,55.27
2023-05-24T08:58:45.415Z,55.35
2023-05-24T08:59:48.436Z,55.35
2023-05-24T09:00:51.089Z,55.63
2023-05-24T09:01:54.608Z,55.71
2023-05-24T09:02:58.904Z,55.18
2023-05-24T09:04:03.026Z,55.14
2023-05-24T09:05:08.494Z,55.61
2023-05-24T09:06:12.187Z,55.12
2023-05-24T09:07:17.773Z,55.08
2023-05-24T09:08:20.713Z,55.09
2023-05-24T09:09:27.348Z,55.34
2023-05-24T09:10:45.020Z,55.56
2023-05-24T09:11:57.154Z,55.76
2023-05-24T09:13:02.366Z,56.44
2023-05-24T09:14:05.232Z,56.81
2023-05-24T09:15:08.988Z,56.07
2023-05-24T09:16:12.207Z,55.74
2023-05-24T09:17:15.960Z,55.59
2023-05-24T09:18:18.846Z,54.55
2023-05-24T09:19:21.719Z,54.23
2023-05-24T09:20:24.631Z,54.79
2023-05-24T09:21:27.841Z,54.73
2023-05-24T09:22:30.976Z,55.13
2023-05-24T09:23:34.261Z,55.02
2023-05-24T09:24:41.071Z,55.08
2023-05-24T09:25:47.298Z,55.39
2023-05-24T09:26:51.129Z,55.65
2023-05-24T09:27:54.014Z,55.58
2023-05-24T09:28:57.707Z,54.99
2023-05-24T09:30:01.683Z,55.13
2023-05-24T09:31:07.411Z,54.44
2023-05-24T09:32:11.191Z,54.37
2023-05-24T09:33:14.068Z,54.76
2023-05-24T09:34:17.310Z,55.04
2023-05-24T09:35:20.059Z,54.60
2023-05-24T09:36:22.843Z,54.29
2023-05-24T09:37:31.097Z,53.94
2023-05-24T09:38:36.638Z,53.05
2023-05-24T09:39:43.032Z,53.44
2023-05-24T09:40:45.830Z,53.23
2023-05-24T09:41:57.888Z,53.23
2023-05-24T09:43:09.233Z,53.13
2023-05-24T09:44:14.399Z,52.96
2023-05-24T09:45:17.530Z,52.40
2023-05-24T09:46:21.691Z,52.75
2023-05-24T09:47:28.489Z,52.34
2023-05-24T09:48:31.985Z,52.27
2023-05-24T09:49:37.121Z,51.91
2023-05-24T09:50:40.418Z,52.41
2023-05-24T09:51:43.775Z,52.31
2023-05-24T09:52:46.630Z,51.70
2023-05-24T09:53:52.379Z,51.96
2023-05-24T09:54:55.577Z,51.87
2023-05-24T09:55:58.402Z,51.65
2023-05-24T09:57:03.527Z,51.43
2023-05-24T09:58:08.584Z,52.17
2023-05-24T09:59:11.745Z,52.54
2023-05-24T10:00:16.228Z,52.30
2023-05-24T10:01:22.648Z,51.83
2023-05-24T10:02:26.012Z,52.17
2023-05-24T10:03:28.971Z,51.64
2023-05-24T10:04:34.955Z,51.57
2023-05-24T10:05:38.633Z,51.41
2023-05-24T10:06:43.037Z,51.60
2023-05-24T10:07:46.321Z,51.64
2023-05-24T10:08:49.521Z,51.90
2023-05-24T10:09:52.603Z,51.18
2023-05-24T10:10:56.207Z,51.37
2023-05-24T10:11:59.796Z,51.51
2023-05-24T10:13:02.869Z,51.62
2023-05-24T10:14:07.189Z,51.65
2023-05-24T10:15:10.898Z,52.07
2023-05-24T10:16:13.784Z,52.38
2023-05-24T10:17:16.723Z,52.71
2023-05-24T10:18:19.979Z,52.71
2023-05-24T10:19:23.467Z,52.78
2023-05-24T10:20:26.888Z,52.76
2023-05-24T10:21:31.640Z,53.30
2023-05-24T10:22:37.423Z,53.61
2023-05-24T10:23:42.404Z,53.51
2023-05-24T10:24:47.122Z,53.39
2023-05-24T10:25:51.570Z,53.18
2023-05-24T10:26:55.600Z,53.17
2023-05-24T10:28:00.665Z,52.43
2023-05-24T10:29:06.791Z,52.82
2023-05-24T10:30:14.259Z,53.20
2023-05-24T10:31:29.860Z,53.29
2023-05-24T10:32:34.958Z,53.30
2023-05-24T10:33:38.417Z,52.79
2023-05-24T10:34:42.859Z,52.56
2023-05-24T10:35:46.000Z,52.27
2023-05-24T10:36:49.005Z,52.15
2023-05-24T10:37:52.459Z,52.40
2023-05-24T10:38:56.117Z,52.84
2023-05-24T10:39:59.464Z,53.07
2023-05-24T10:41:02.689Z,53.23
2023-05-24T10:42:09.394Z,52.99
2023-05-24T10:43:12.700Z,53.01
2023-05-24T10:44:18.599Z,53.50
2023-05-24T10:45:27.430Z,52.78
2023-05-24T10:46:32.891Z,52.75
2023-05-24T10:47:39.059Z,53.09
2023-05-24T10:48:42.541Z,53.54
2023-05-24T10:49:57.819Z,53.43
2023-05-24T10:51:23.828Z,53.60
2023-05-24T10:52:36.328Z,53.54
2023-05-24T10:53:40.308Z,54.13
2023-05-24T10:55:06.202Z,54.11
2023-05-24T10:56:09.508Z,54.06
2023-05-24T10:57:12.383Z,53.28
2023-05-24T10:58:15.708Z,53.54
2023-05-24T10:59:28.814Z,53.59
2023-05-24T11:00:35.806Z,53.74
2023-05-24T11:01:39.179Z,54.23
2023-05-24T11:02:42.007Z,54.62
2023-05-24T11:03:45.240Z,54.71
2023-05-24T11:04:49.298Z,53.33
2023-05-24T11:05:54.490Z,53.32
2023-05-24T11:07:01.572Z,53.42
2023-05-24T11:08:07.045Z,53.36
2023-05-24T11:09:10.748Z,53.13
2023-05-24T11:10:19.273Z,53.60
2023-05-24T11:11:28.596Z,54.04
2023-05-24T11:12:38.670Z,54.30
2023-05-24T11:13:41.647Z,53.78
2023-05-24T11:14:51.517Z,53.81
2023-05-24T11:15:54.866Z,53.43
2023-05-24T11:16:58.194Z,53.29
2023-05-24T11:18:07.205Z,53.11
2023-05-24T11:19:21.182Z,52.87
2023-05-24T11:20:24.148Z,53.10
2023-05-24T11:21:27.917Z,52.79
2023-05-24T11:22:31.642Z,53.32
2023-05-24T11:23:37.991Z,52.76
2023-05-24T11:24:41.942Z,52.27
2023-05-24T11:25:47.197Z,52.44
2023-05-24T11:26:50.267Z,52.30
2023-05-24T11:27:53.561Z,52.25
2023-05-24T11:28:57.266Z,52.40
2023-05-24T11:30:01.069Z,52.13
2023-05-24T11:31:08.061Z,51.52
2023-05-24T11:32:14.753Z,50.59
2023-05-24T11:33:18.854Z,50.52
2023-05-24T11:34:22.030Z,50.40
2023-05-24T11:35:30.533Z,49.39
2023-05-24T11:36:33.560Z,48.96
2023-05-24T11:37:46.049Z,48.59
2023-05-24T11:38:50.093Z,49.05
2023-05-24T11:39:53.228Z,49.52
2023-05-24T11:40:58.240Z,48.76
2023-05-24T11:42:04.096Z,48.69
2023-05-24T11:43:07.182Z,48.08
2023-05-24T11:44:10.856Z,48.15
2023-05-24T11:45:14.672Z,48.46
2023-05-24T11:46:19.383Z,47.92
2023-05-24T11:47:25.124Z,47.95
2023-05-24T11:48:29.183Z,47.15
2023-05-24T11:49:32.046Z,46.95
2023-05-24T11:50:49.535Z,46.64
2023-05-24T11:51:57.037Z,45.82
2023-05-24T11:53:03.791Z,46.50
2023-05-24T11:54:06.933Z,46.73
2023-05-24T11:55:16.633Z,46.85
2023-05-24T11:56:21.616Z,46.01
2023-05-24T11:57:29.615Z,46.79
2023-05-24T11:58:39.792Z,46.57
2023-05-24T11:59:42.674Z,46.43
2023-05-24T12:00:47.098Z,45.94
2023-05-24T12:01:51.563Z,46.03
2023-05-24T12:03:01.761Z,45.63
2023-05-24T12:04:09.750Z,44.92
2023-05-24T12:05:14.532Z,44.52
2023-05-24T12:06:18.133Z,43.75
2023-05-24T12:07:23.828Z,44.22
2023-05-24T12:08:26.791Z,43.66
2023-05-24T12:09:29.539Z,42.41
2023-05-24T12:10:33.479Z,42.49
2023-05-24T12:11:43.486Z,42.83
2023-05-24T12:12:46.952Z,42.00
2023-05-24T12:13:49.964Z,41.87
2023-05-24T12:14:55.169Z,42.21
2023-05-24T12:15:58.511Z,42.50
2023-05-24T12:17:01.438Z,42.66
2023-05-24T12:18:04.288Z,42.36
2023-05-24T12:19:13.938Z,40.31
2023-05-24T12:20:20.610Z,40.41
2023-05-24T12:21:23.745Z,40.51
2023-05-24T12:22:28.321Z,39.62
2023-05-24T12:23:32.804Z,39.63
2023-05-24T12:24:35.750Z,40.32
2023-05-24T12:25:38.618Z,40.85
2023-05-24T12:26:43.211Z,40.48
2023-05-24T12:27:48.163Z,41.17
2023-05-24T12:28:55.170Z,40.66
2023-05-24T12:30:06.276Z,39.59
2023-05-24T12:31:09.617Z,40.17
2023-05-24T12:32:13.979Z,39.55
2023-05-24T12:33:21.118Z,39.15
2023-05-24T12:34:24.238Z,39.67
2023-05-24T12:35:27.102Z,39.53
2023-05-24T12:36:30.164Z,39.32
2023-05-24T12:37:33.684Z,38.14
2023-05-24T12:38:36.426Z,38.22
2023-05-24T12:39:39.751Z,38.06
2023-05-24T12:40:44.636Z,37.24
2023-05-24T12:41:54.381Z,35.94
2023-05-24T12:42:58.046Z,36.17
2023-05-24T12:44:00.934Z,35.86
2023-05-24T12:45:03.785Z,36.04
2023-05-24T12:46:06.957Z,36.83
2023-05-24T12:47:10.225Z,36.06
2023-05-24T12:48:13.315Z,36.19
2023-05-24T12:49:16.636Z,35.92
2023-05-24T12:50:19.898Z,35.00
2023-05-24T12:51:22.781Z,35.08
2023-05-24T12:52:25.504Z,35.27
2023-05-24T12:53:28.537Z,34.58
2023-05-24T12:54:31.340Z,34.11
2023-05-24T12:55:34.247Z,34.31
2023-05-24T12:56:38.156Z,35.16
2023-05-24T12:57:41.420Z,34.97
2023-05-24T12:58:44.614Z,34.50
2023-05-24T12:59:47.539Z,34.45
2023-05-24T13:00:51.986Z,34.63
2023-05-24T13:01:54.984Z,34.33
2023-05-24T13:02:59.476Z,34.56
2023-05-24T13:04:02.945Z,34.89
2023-05-24T13:05:05.920Z,34.62
2023-05-24T13:06:08.863Z,34.76
2023-05-24T13:07:11.717Z,34.12
2023-05-24T13:08:14.697Z,33.86
2023-05-24T13:09:23.752Z,33.60
2023-05-24T13:10:27.572Z,33.63
2023-05-24T13:11:31.283Z,33.80
2023-05-24T13:12:34.178Z,33.67
2023-05-24T13:13:38.304Z,33.72
2023-05-24T13:14:41.543Z,34.08
2023-05-24T13:15:44.721Z,33.69
2023-05-24T13:16:47.688Z,34.51
2023-05-24T13:17:51.243Z,34.05
2023-05-24T13:18:54.306Z,34.13
2023-05-24T13:19:58.847Z,33.79
2023-05-24T13:21:01.604Z,34.18
2023-05-24T13:22:04.538Z,33.93
2023-05-24T13:23:07.949Z,34.22
2023-05-24T13:24:10.666Z,34.13
2023-05-24T13:25:13.812Z,34.29
2023-05-24T13:26:16.591Z,34.43
2023-05-24T13:27:19.506Z,33.96
2023-05-24T13:28:22.328Z,32.86
2023-05-24T13:30:31.159Z,33.21
2023-05-24T13:31:34.080Z,33.14
2023-05-24T13:32:38.470Z,33.47
2023-05-24T13:33:43.103Z,33.43
2023-05-24T13:34:45.882Z,32.94
2023-05-24T13:35:49.911Z,32.31
2023-05-24T13:36:53.363Z,32.76
2023-05-24T13:37:58.026Z,32.52
2023-05-24T13:40:06.979Z,32.04
2023-05-24T13:41:10.145Z,32.53
2023-05-24T13:42:12.939Z,31.71
2023-05-24T13:43:15.816Z,31.13
2023-05-24T13:44:18.712Z,30.86
2023-05-24T13:45:21.567Z,30.82
2023-05-24T13:46:24.988Z,31.53
2023-05-24T13:47:39.206Z,31.43
2023-05-24T13:48:43.153Z,31.16
2023-05-24T13:49:46.283Z,31.13
2023-05-24T13:50:49.208Z,31.40
2023-05-24T13:51:54.874Z,31.53
2023-05-24T13:53:02.217Z,31.34
2023-05-24T13:54:07.207Z,31.06
2023-05-24T13:55:10.858Z,31.28
2023-05-24T13:56:13.929Z,30.48
2023-05-24T13:57:17.377Z,30.82
2023-05-24T13:58:20.149Z,30.83
2023-05-24T13:59:22.941Z,30.45
2023-05-24T14:00:25.704Z,30.19
2023-05-24T14:01:28.569Z,30.35
2023-05-24T14:02:32.142Z,30.25
2023-05-24T14:03:34.982Z,30.69
2023-05-24T14:04:37.714Z,30.35